Tyne Valley, Canada
Current Conditions -  °F | °C
As of 11:00 AM on Saturday 20 Dec 2014 (Local Time) from CYYG Reporting Station
Rain Showers Rain Showers  
Wind Chill: 22°   Ceiling: 2500
Heat Index: 32°   Visibility: 12mi
Dew Point: 27°   Wind: 14mph
Humidity: 80%   Direction: 30°NNE
Pressure: 30.25"   Gusts: 24mph
Location:  46.57°N, 63.93°W
Report Text: CYYG 201500Z 03012G21KT 12SM VCSH FEW014 OVC025 M00/M03 A3025 RMK SC2SC6 VIS LWR SW SLP245
Loading
Personal Weather Stations






























Interactive Weather Map New forecast layout! Learn more

10-Day Weather Forecast

Advertisements
Track Severe Weather on mobile